sensor_id;sensor_type;location;lat;lon;timestamp;pressure;altitude;pressure_sealevel;temperature;humidity
17936;BME280;9093;52.062;4.508;2022-09-01T00:01:18;102494.38;;;18.91;53.02
17936;BME280;9093;52.062;4.508;2022-09-01T00:04:00;102493.78;;;18.85;53.17
17936;BME280;9093;52.062;4.508;2022-09-01T00:06:42;102487.72;;;18.82;53.30
17936;BME280;9093;52.062;4.508;2022-09-01T00:09:22;102493.31;;;18.79;53.25
17936;BME280;9093;52.062;4.508;2022-09-01T00:12:03;102487.88;;;18.79;53.32
17936;BME280;9093;52.062;4.508;2022-09-01T00:14:43;102476.31;;;18.77;53.21
17936;BME280;9093;52.062;4.508;2022-09-01T00:17:24;102484.59;;;18.74;53.42
17936;BME280;9093;52.062;4.508;2022-09-01T00:20:05;102484.03;;;18.69;53.41
17936;BME280;9093;52.062;4.508;2022-09-01T00:22:45;102485.19;;;18.65;53.51
17936;BME280;9093;52.062;4.508;2022-09-01T00:25:26;102479.16;;;18.60;53.56
17936;BME280;9093;52.062;4.508;2022-09-01T00:28:06;102478.50;;;18.56;53.61
17936;BME280;9093;52.062;4.508;2022-09-01T00:30:47;102478.41;;;18.58;53.62
17936;BME280;9093;52.062;4.508;2022-09-01T00:33:27;102478.56;;;18.55;53.71
17936;BME280;9093;52.062;4.508;2022-09-01T00:36:07;102476.06;;;18.52;53.64
17936;BME280;9093;52.062;4.508;2022-09-01T00:38:48;102473.53;;;18.48;53.59
17936;BME280;9093;52.062;4.508;2022-09-01T00:41:30;102479.88;;;18.47;53.71
17936;BME280;9093;52.062;4.508;2022-09-01T00:44:12;102477.56;;;18.41;54.08
17936;BME280;9093;52.062;4.508;2022-09-01T00:46:54;102474.19;;;18.38;53.94
17936;BME280;9093;52.062;4.508;2022-09-01T00:49:42;102465.38;;;18.34;53.94
17936;BME280;9093;52.062;4.508;2022-09-01T00:52:33;102463.75;;;18.32;54.01
17936;BME280;9093;52.062;4.508;2022-09-01T00:55:20;102467.50;;;18.29;54.29
17936;BME280;9093;52.062;4.508;2022-09-01T00:58:01;102456.00;;;18.26;53.97
17936;BME280;9093;52.062;4.508;2022-09-01T01:00:43;102465.25;;;18.22;54.23
17936;BME280;9093;52.062;4.508;2022-09-01T01:06:44;102464.66;;;18.17;54.42
17936;BME280;9093;52.062;4.508;2022-09-01T01:09:31;102455.66;;;18.16;54.33
17936;BME280;9093;52.062;4.508;2022-09-01T01:12:12;102455.00;;;18.13;54.44
17936;BME280;9093;52.062;4.508;2022-09-01T01:14:57;102459.03;;;18.05;54.45
17936;BME280;9093;52.062;4.508;2022-09-01T01:17:37;102464.44;;;18.05;54.55
17936;BME280;9093;52.062;4.508;2022-09-01T01:20:17;102459.91;;;18.06;54.65
17936;BME280;9093;52.062;4.508;2022-09-01T01:23:23;102456.59;;;18.01;54.68
17936;BME280;9093;52.062;4.508;2022-09-01T01:26:05;102460.44;;;17.97;54.89
17936;BME280;9093;52.062;4.508;2022-09-01T01:28:45;102451.56;;;17.95;54.85
17936;BME280;9093;52.062;4.508;2022-09-01T01:31:25;102463.41;;;17.92;54.88
17936;BME280;9093;52.062;4.508;2022-09-01T01:34:06;102452.59;;;17.92;55.01
17936;BME280;9093;52.062;4.508;2022-09-01T01:36:47;102457.94;;;17.94;54.82
17936;BME280;9093;52.062;4.508;2022-09-01T01:39:27;102458.88;;;17.93;55.03
17936;BME280;9093;52.062;4.508;2022-09-01T01:42:08;102460.72;;;17.92;54.99
17936;BME280;9093;52.062;4.508;2022-09-01T01:44:49;102453.47;;;17.93;54.98
17936;BME280;9093;52.062;4.508;2022-09-01T01:47:29;102457.34;;;17.89;54.90
17936;BME280;9093;52.062;4.508;2022-09-01T01:50:09;102446.53;;;17.89;55.03
17936;BME280;9093;52.062;4.508;2022-09-01T01:52:49;102441.13;;;17.89;55.14
17936;BME280;9093;52.062;4.508;2022-09-01T01:55:30;102452.09;;;17.86;55.17
17936;BME280;9093;52.062;4.508;2022-09-01T01:58:10;102456.81;;;17.82;55.19
17936;BME280;9093;52.062;4.508;2022-09-01T02:00:54;102459.88;;;17.76;55.26
17936;BME280;9093;52.062;4.508;2022-09-01T02:03:34;102454.56;;;17.75;55.36
17936;BME280;9093;52.062;4.508;2022-09-01T02:06:17;102456.47;;;17.73;55.47
17936;BME280;9093;52.062;4.508;2022-09-01T02:09:01;102449.31;;;17.72;55.36
17936;BME280;9093;52.062;4.508;2022-09-01T02:11:42;102454.13;;;17.66;55.54
17936;BME280;9093;52.062;4.508;2022-09-01T02:14:23;102453.16;;;17.67;55.56
17936;BME280;9093;52.062;4.508;2022-09-01T02:17:04;102445.06;;;17.67;55.65
17936;BME280;9093;52.062;4.508;2022-09-01T02:19:46;102446.03;;;17.66;55.37
17936;BME280;9093;52.062;4.508;2022-09-01T02:22:26;102443.41;;;17.65;55.52
17936;BME280;9093;52.062;4.508;2022-09-01T02:25:07;102440.81;;;17.63;55.69
17936;BME280;9093;52.062;4.508;2022-09-01T02:27:47;102440.97;;;17.60;55.62
17936;BME280;9093;52.062;4.508;2022-09-01T02:30:34;102442.72;;;17.61;55.79
17936;BME280;9093;52.062;4.508;2022-09-01T02:33:17;102443.72;;;17.59;55.69
17936;BME280;9093;52.062;4.508;2022-09-01T02:35:59;102448.38;;;17.57;55.84
17936;BME280;9093;52.062;4.508;2022-09-01T02:38:41;102434.16;;;17.53;56.06
17936;BME280;9093;52.062;4.508;2022-09-01T02:41:24;102434.22;;;17.52;55.95
17936;BME280;9093;52.062;4.508;2022-09-01T02:44:08;102428.16;;;17.48;55.99
17936;BME280;9093;52.062;4.508;2022-09-01T02:46:50;102431.00;;;17.45;55.97
17936;BME280;9093;52.062;4.508;2022-09-01T02:49:30;102432.00;;;17.44;56.04
17936;BME280;9093;52.062;4.508;2022-09-01T02:52:11;102424.06;;;17.41;56.14
17936;BME280;9093;52.062;4.508;2022-09-01T02:54:54;102425.88;;;17.41;56.18
17936;BME280;9093;52.062;4.508;2022-09-01T02:57:35;102430.75;;;17.34;56.38
17936;BME280;9093;52.062;4.508;2022-09-01T03:00:16;102425.56;;;17.31;56.37
17936;BME280;9093;52.062;4.508;2022-09-01T03:03:01;102419.38;;;17.29;56.35
17936;BME280;9093;52.062;4.508;2022-09-01T03:05:41;102419.38;;;17.29;56.38
17936;BME280;9093;52.062;4.508;2022-09-01T03:08:23;102421.97;;;17.31;56.33
17936;BME280;9093;52.062;4.508;2022-09-01T03:11:04;102416.59;;;17.31;56.50
17936;BME280;9093;52.062;4.508;2022-09-01T03:13:46;102421.97;;;17.31;56.33
17936;BME280;9093;52.062;4.508;2022-09-01T03:16:27;102415.88;;;17.27;56.31
17936;BME280;9093;52.062;4.508;2022-09-01T03:19:09;102411.47;;;17.26;56.58
17936;BME280;9093;52.062;4.508;2022-09-01T03:21:51;102416.84;;;17.26;56.43
17936;BME280;9093;52.062;4.508;2022-09-01T03:24:31;102420.75;;;17.20;56.50
17936;BME280;9093;52.062;4.508;2022-09-01T03:27:11;102417.16;;;17.20;56.58
17936;BME280;9093;52.062;4.508;2022-09-01T03:29:51;102411.78;;;17.20;56.79
17936;BME280;9093;52.062;4.508;2022-09-01T03:32:31;102417.28;;;17.18;56.73
17936;BME280;9093;52.062;4.508;2022-09-01T03:35:11;102413.78;;;17.16;56.81
17936;BME280;9093;52.062;4.508;2022-09-01T03:37:52;102417.34;;;17.17;56.68
17936;BME280;9093;52.062;4.508;2022-09-01T03:40:33;102413.88;;;17.15;56.73
17936;BME280;9093;52.062;4.508;2022-09-01T03:43:13;102405.97;;;17.12;57.04
17936;BME280;9093;52.062;4.508;2022-09-01T03:45:54;102413.09;;;17.13;57.02
17936;BME280;9093;52.062;4.508;2022-09-01T03:48:35;102404.22;;;17.11;56.85
17936;BME280;9093;52.062;4.508;2022-09-01T03:51:15;102402.66;;;17.07;56.93
17936;BME280;9093;52.062;4.508;2022-09-01T03:53:57;102408.06;;;17.07;57.05
17936;BME280;9093;52.062;4.508;2022-09-01T03:56:38;102406.47;;;17.03;57.11
17936;BME280;9093;52.062;4.508;2022-09-01T03:59:20;102403.00;;;17.01;57.08
17936;BME280;9093;52.062;4.508;2022-09-01T04:02:01;102399.31;;;17.02;57.11
17936;BME280;9093;52.062;4.508;2022-09-01T04:04:41;102397.75;;;16.98;57.05
17936;BME280;9093;52.062;4.508;2022-09-01T04:07:21;102396.97;;;16.96;57.34
17936;BME280;9093;52.062;4.508;2022-09-01T04:10:03;102395.06;;;16.98;57.18
17936;BME280;9093;52.062;4.508;2022-09-01T04:12:44;102401.41;;;16.97;57.15
17936;BME280;9093;52.062;4.508;2022-09-01T04:15:25;102387.31;;;16.92;57.33
17936;BME280;9093;52.062;4.508;2022-09-01T04:18:05;102391.84;;;16.91;57.30
17936;BME280;9093;52.062;4.508;2022-09-01T04:20:50;102386.50;;;16.89;57.34
17936;BME280;9093;52.062;4.508;2022-09-01T04:23:31;102392.03;;;16.88;57.24
17936;BME280;9093;52.062;4.508;2022-09-01T04:26:14;102389.41;;;16.86;57.37
17936;BME280;9093;52.062;4.508;2022-09-01T04:28:59;102399.41;;;16.84;57.40
17936;BME280;9093;52.062;4.508;2022-09-01T04:31:39;102402.28;;;16.81;57.28
17936;BME280;9093;52.062;4.508;2022-09-01T04:34:21;102409.38;;;16.82;57.26
17936;BME280;9093;52.062;4.508;2022-09-01T04:37:07;102403.31;;;16.79;57.36
17936;BME280;9093;52.062;4.508;2022-09-01T04:39:48;102400.75;;;16.76;57.53
17936;BME280;9093;52.062;4.508;2022-09-01T04:42:31;102402.63;;;16.75;57.47
17936;BME280;9093;52.062;4.508;2022-09-01T04:45:11;102399.28;;;16.70;57.61
17936;BME280;9093;52.062;4.508;2022-09-01T04:47:52;102406.59;;;16.68;57.69
17936;BME280;9093;52.062;4.508;2022-09-01T04:50:32;102403.78;;;16.70;57.51
17936;BME280;9093;52.062;4.508;2022-09-01T04:53:14;102401.97;;;16.70;57.54
17936;BME280;9093;52.062;4.508;2022-09-01T04:55:55;102405.53;;;16.71;57.77
17936;BME280;9093;52.062;4.508;2022-09-01T04:58:35;102396.69;;;16.69;57.62
17936;BME280;9093;52.062;4.508;2022-09-01T05:01:16;102404.66;;;16.70;57.57
17936;BME280;9093;52.062;4.508;2022-09-01T05:03:57;102394.84;;;16.69;57.67
17936;BME280;9093;52.062;4.508;2022-09-01T05:06:41;102404.66;;;16.70;57.60
17936;BME280;9093;52.062;4.508;2022-09-01T05:09:22;102400.06;;;16.72;57.44
17936;BME280;9093;52.062;4.508;2022-09-01T05:12:04;102402.91;;;16.69;57.60
17936;BME280;9093;52.062;4.508;2022-09-01T05:14:50;102400.41;;;16.66;57.87
17936;BME280;9093;52.062;4.508;2022-09-01T05:17:31;102408.50;;;16.66;57.93
17936;BME280;9093;52.062;4.508;2022-09-01T05:20:12;102404.84;;;16.67;57.86
17936;BME280;9093;52.062;4.508;2022-09-01T05:22:52;102408.50;;;16.66;57.66
17936;BME280;9093;52.062;4.508;2022-09-01T05:25:40;102402.16;;;16.67;57.85
17936;BME280;9093;52.062;4.508;2022-09-01T05:28:20;102406.75;;;16.65;57.77
17936;BME280;9093;52.062;4.508;2022-09-01T05:31:04;102402.50;;;16.61;57.91
17936;BME280;9093;52.062;4.508;2022-09-01T05:33:45;102399.63;;;16.64;57.79
17936;BME280;9093;52.062;4.508;2022-09-01T05:36:27;102392.47;;;16.63;57.98
17936;BME280;9093;52.062;4.508;2022-09-01T05:39:09;102396.91;;;16.64;57.98
17936;BME280;9093;52.062;4.508;2022-09-01T05:41:51;102397.72;;;16.66;58.00
17936;BME280;9093;52.062;4.508;2022-09-01T05:44:33;102399.47;;;16.67;57.86
17936;BME280;9093;52.062;4.508;2022-09-01T05:47:13;102401.97;;;16.70;57.74
17936;BME280;9093;52.062;4.508;2022-09-01T05:49:55;102406.41;;;16.71;57.92
17936;BME280;9093;52.062;4.508;2022-09-01T05:52:37;102406.41;;;16.71;58.05
17936;BME280;9093;52.062;4.508;2022-09-01T05:55:18;102410.78;;;16.74;58.02
17936;BME280;9093;52.062;4.508;2022-09-01T05:57:58;102409.72;;;16.76;58.09
17936;BME280;9093;52.062;4.508;2022-09-01T06:00:39;102411.47;;;16.77;57.90
17936;BME280;9093;52.062;4.508;2022-09-01T06:03:20;102407.81;;;16.78;58.01
17936;BME280;9093;52.062;4.508;2022-09-01T06:06:04;102412.19;;;16.81;58.00
17936;BME280;9093;52.062;4.508;2022-09-01T06:08:51;102405.75;;;16.83;58.04
17936;BME280;9093;52.062;4.508;2022-09-01T06:11:31;102411.84;;;16.87;57.77
17936;BME280;9093;52.062;4.508;2022-09-01T06:14:12;102412.53;;;16.91;57.85
17936;BME280;9093;52.062;4.508;2022-09-01T06:16:53;102415.16;;;16.92;57.88
17936;BME280;9093;52.062;4.508;2022-09-01T06:19:33;102408.03;;;16.91;57.69
17936;BME280;9093;52.062;4.508;2022-09-01T06:22:14;102409.06;;;16.88;57.91
17936;BME280;9093;52.062;4.508;2022-09-01T06:24:56;102415.44;;;16.87;58.11
17936;BME280;9093;52.062;4.508;2022-09-01T06:27:38;102414.44;;;16.88;57.94
17936;BME280;9093;52.062;4.508;2022-09-01T06:30:21;102409.84;;;16.91;58.12
17936;BME280;9093;52.062;4.508;2022-09-01T06:33:05;102406.19;;;16.92;58.01
17936;BME280;9093;52.062;4.508;2022-09-01T06:35:50;102419.69;;;16.92;58.01
17936;BME280;9093;52.062;4.508;2022-09-01T06:38:31;102415.16;;;16.92;58.03
17936;BME280;9093;52.062;4.508;2022-09-01T06:41:11;102409.59;;;16.95;57.92
17936;BME280;9093;52.062;4.508;2022-09-01T06:43:52;102422.31;;;16.93;57.93
17936;BME280;9093;52.062;4.508;2022-09-01T06:46:32;102408.72;;;16.95;58.01
17936;BME280;9093;52.062;4.508;2022-09-01T06:49:13;102421.25;;;16.96;58.00
17936;BME280;9093;52.062;4.508;2022-09-01T06:51:53;102412.19;;;16.97;58.14
17936;BME280;9093;52.062;4.508;2022-09-01T06:54:33;102419.19;;;17.01;57.97
17936;BME280;9093;52.062;4.508;2022-09-01T06:57:14;102419.06;;;17.02;57.96
17936;BME280;9093;52.062;4.508;2022-09-01T06:59:54;102417.09;;;17.06;57.95
17936;BME280;9093;52.062;4.508;2022-09-01T07:02:35;102419.69;;;17.07;57.76
17936;BME280;9093;52.062;4.508;2022-09-01T07:05:18;102423.19;;;17.09;58.02
17936;BME280;9093;52.062;4.508;2022-09-01T07:08:00;102428.44;;;17.12;57.82
17936;BME280;9093;52.062;4.508;2022-09-01T07:10:49;102427.34;;;17.15;57.84
17936;BME280;9093;52.062;4.508;2022-09-01T07:13:30;102423.72;;;17.16;57.79
17936;BME280;9093;52.062;4.508;2022-09-01T07:16:16;102424.44;;;17.19;57.74
17936;BME280;9093;52.062;4.508;2022-09-01T07:19:02;102429.56;;;17.24;57.85
17936;BME280;9093;52.062;4.508;2022-09-01T07:21:45;102421.25;;;17.27;57.75
17936;BME280;9093;52.062;4.508;2022-09-01T07:24:25;102428.25;;;17.31;57.78
17936;BME280;9093;52.062;4.508;2022-09-01T07:27:07;102433.47;;;17.34;57.64
17936;BME280;9093;52.062;4.508;2022-09-01T07:29:48;102423.47;;;17.36;57.65
17936;BME280;9093;52.062;4.508;2022-09-01T07:32:32;102424.25;;;17.38;57.64
17936;BME280;9093;52.062;4.508;2022-09-01T07:35:14;102429.47;;;17.41;57.77
17936;BME280;9093;52.062;4.508;2022-09-01T07:37:54;102435.56;;;17.45;57.76
17936;BME280;9093;52.062;4.508;2022-09-01T07:40:39;102428.16;;;17.48;57.73
17936;BME280;9093;52.062;4.508;2022-09-01T07:43:23;102427.13;;;17.51;57.74
17936;BME280;9093;52.062;4.508;2022-09-01T07:46:04;102425.97;;;17.55;57.70
17936;BME280;9093;52.062;4.508;2022-09-01T07:48:44;102427.47;;;17.60;57.57
17936;BME280;9093;52.062;4.508;2022-09-01T07:51:28;102433.59;;;17.64;57.54
17936;BME280;9093;52.062;4.508;2022-09-01T07:54:08;102428.84;;;17.67;57.64
17936;BME280;9093;52.062;4.508;2022-09-01T07:56:52;102426.75;;;17.73;57.72
17936;BME280;9093;52.062;4.508;2022-09-01T07:59:34;102432.94;;;17.75;57.57
17936;BME280;9093;52.062;4.508;2022-09-01T08:02:15;102417.41;;;17.78;57.66
17936;BME280;9093;52.062;4.508;2022-09-01T08:04:57;102422.56;;;17.83;57.54
17936;BME280;9093;52.062;4.508;2022-09-01T08:07:39;102425.84;;;17.88;57.54
17936;BME280;9093;52.062;4.508;2022-09-01T08:10:19;102434.63;;;17.91;57.50
17936;BME280;9093;52.062;4.508;2022-09-01T08:13:00;102431.66;;;17.96;57.43
17936;BME280;9093;52.062;4.508;2022-09-01T08:15:40;102436.72;;;18.02;57.59
17936;BME280;9093;52.062;4.508;2022-09-01T08:18:20;102424.75;;;18.06;57.43
17936;BME280;9093;52.062;4.508;2022-09-01T08:21:05;102437.91;;;18.12;57.49
17936;BME280;9093;52.062;4.508;2022-09-01T08:23:45;102438.50;;;18.17;57.43
17936;BME280;9093;52.062;4.508;2022-09-01T08:26:26;102434.53;;;18.23;57.22
17936;BME280;9093;52.062;4.508;2022-09-01T08:29:07;102440.44;;;18.29;57.33
17936;BME280;9093;52.062;4.508;2022-09-01T08:31:47;102425.69;;;18.35;57.30
17936;BME280;9093;52.062;4.508;2022-09-01T08:34:27;102432.53;;;18.40;57.29
17936;BME280;9093;52.062;4.508;2022-09-01T08:37:07;102423.28;;;18.44;57.31
17936;BME280;9093;52.062;4.508;2022-09-01T08:39:48;102434.69;;;18.49;57.29
17936;BME280;9093;52.062;4.508;2022-09-01T08:45:12;102428.94;;;18.56;57.30
17936;BME280;9093;52.062;4.508;2022-09-01T08:47:55;102429.44;;;18.62;57.25
17936;BME280;9093;52.062;4.508;2022-09-01T08:50:36;102428.94;;;18.70;57.23
17936;BME280;9093;52.062;4.508;2022-09-01T08:53:25;102431.28;;;18.76;57.06
17936;BME280;9093;52.062;4.508;2022-09-01T08:56:08;102421.03;;;18.81;57.15
17936;BME280;9093;52.062;4.508;2022-09-01T08:58:48;102427.22;;;18.83;57.27
17936;BME280;9093;52.062;4.508;2022-09-01T09:01:30;102422.38;;;18.88;57.14
17936;BME280;9093;52.062;4.508;2022-09-01T09:07:03;102416.09;;;19.02;57.15
17936;BME280;9093;52.062;4.508;2022-09-01T09:09:51;102419.25;;;19.08;57.08
17936;BME280;9093;52.062;4.508;2022-09-01T09:12:52;102410.63;;;19.16;57.10
17936;BME280;9093;52.062;4.508;2022-09-01T09:15:42;102416.50;;;19.22;57.03
17936;BME280;9093;52.062;4.508;2022-09-01T09:18:28;102412.44;;;19.29;57.13
17936;BME280;9093;52.062;4.508;2022-09-01T09:21:13;102403.81;;;19.37;57.14
17936;BME280;9093;52.062;4.508;2022-09-01T09:23:58;102407.06;;;19.42;57.18
17936;BME280;9093;52.062;4.508;2022-09-01T09:26:39;102408.66;;;19.46;57.21
17936;BME280;9093;52.062;4.508;2022-09-01T09:29:20;102401.75;;;19.55;57.30
17936;BME280;9093;52.062;4.508;2022-09-01T09:32:03;102408.31;;;19.65;57.17
17936;BME280;9093;52.062;4.508;2022-09-01T09:34:44;102397.16;;;19.70;56.84
17936;BME280;9093;52.062;4.508;2022-09-01T09:37:26;102396.81;;;19.74;57.13
17936;BME280;9093;52.062;4.508;2022-09-01T09:45:36;102384.53;;;19.95;56.71
17936;BME280;9093;52.062;4.508;2022-09-01T09:48:28;102386.72;;;20.03;56.89
17936;BME280;9093;52.062;4.508;2022-09-01T09:51:18;102386.94;;;20.13;56.52
17936;BME280;9093;52.062;4.508;2022-09-01T09:54:16;102391.50;;;20.25;56.69
17936;BME280;9093;52.062;4.508;2022-09-01T09:57:12;102381.19;;;20.30;56.84
17936;BME280;9093;52.062;4.508;2022-09-01T10:00:01;102382.53;;;20.37;56.60
17936;BME280;9093;52.062;4.508;2022-09-01T10:02:42;102376.66;;;20.43;56.44
17936;BME280;9093;52.062;4.508;2022-09-01T10:08:04;102383.28;;;20.52;56.67
17936;BME280;9093;52.062;4.508;2022-09-01T10:10:47;102374.81;;;20.56;56.68
17936;BME280;9093;52.062;4.508;2022-09-01T10:13:27;102384.38;;;20.62;56.60
17936;BME280;9093;52.062;4.508;2022-09-01T10:16:21;102373.94;;;20.68;56.80
17936;BME280;9093;52.062;4.508;2022-09-01T10:19:04;102375.47;;;20.72;56.68
17936;BME280;9093;52.062;4.508;2022-09-01T10:21:46;102365.91;;;20.79;56.48
17936;BME280;9093;52.062;4.508;2022-09-01T10:24:31;102367.16;;;20.86;56.37
17936;BME280;9093;52.062;4.508;2022-09-01T10:27:16;102364.34;;;20.88;56.41
17936;BME280;9093;52.062;4.508;2022-09-01T10:30:10;102366.41;;;20.97;56.36
17936;BME280;9093;52.062;4.508;2022-09-01T10:32:54;102359.75;;;21.01;56.32
17936;BME280;9093;52.062;4.508;2022-09-01T10:35:36;102358.44;;;21.07;56.17
17936;BME280;9093;52.062;4.508;2022-09-01T10:38:21;102368.84;;;21.13;56.25
17936;BME280;9093;52.062;4.508;2022-09-01T10:41:02;102367.53;;;21.18;56.10
17936;BME280;9093;52.062;4.508;2022-09-01T10:43:49;102365.38;;;21.23;55.84
17936;BME280;9093;52.062;4.508;2022-09-01T10:49:18;102350.97;;;21.34;56.01
17936;BME280;9093;52.062;4.508;2022-09-01T10:51:58;102342.38;;;21.40;55.87
17936;BME280;9093;52.062;4.508;2022-09-01T11:14:17;102340.81;;;21.95;55.04
17936;BME280;9093;52.062;4.508;2022-09-01T11:17:18;102348.03;;;21.96;55.40
17936;BME280;9093;52.062;4.508;2022-09-01T11:20:09;102352.59;;;21.95;55.63
17936;BME280;9093;52.062;4.508;2022-09-01T11:22:59;102348.44;;;22.02;55.54
17936;BME280;9093;52.062;4.508;2022-09-01T11:25:42;102341.63;;;22.08;55.42
17936;BME280;9093;52.062;4.508;2022-09-01T11:33:57;102331.00;;;22.05;55.73
17936;BME280;9093;52.062;4.508;2022-09-01T11:39:31;102331.53;;;22.21;55.21
17936;BME280;9093;52.062;4.508;2022-09-01T11:42:27;102331.91;;;22.28;55.57
17936;BME280;9093;52.062;4.508;2022-09-01T11:45:16;102330.31;;;22.36;55.21
17936;BME280;9093;52.062;4.508;2022-09-01T11:47:57;102334.28;;;22.43;55.53
17936;BME280;9093;52.062;4.508;2022-09-01T11:50:40;102319.91;;;22.53;55.42
17936;BME280;9093;52.062;4.508;2022-09-01T11:53:22;102317.44;;;22.61;55.19
17936;BME280;9093;52.062;4.508;2022-09-01T11:56:19;102316.94;;;22.78;55.13
17936;BME280;9093;52.062;4.508;2022-09-01T11:59:00;102321.78;;;22.85;54.88
17936;BME280;9093;52.062;4.508;2022-09-01T12:01:40;102313.22;;;22.90;54.87
17936;BME280;9093;52.062;4.508;2022-09-01T12:04:22;102308.41;;;22.94;54.87
17936;BME280;9093;52.062;4.508;2022-09-01T12:07:04;102304.53;;;22.96;54.76
17936;BME280;9093;52.062;4.508;2022-09-01T12:09:45;102306.97;;;23.10;54.66
17936;BME280;9093;52.062;4.508;2022-09-01T12:12:29;102300.28;;;23.14;54.57
17936;BME280;9093;52.062;4.508;2022-09-01T12:15:16;102310.69;;;23.20;54.49
17936;BME280;9093;52.062;4.508;2022-09-01T12:20:58;102301.94;;;23.38;53.97
17936;BME280;9093;52.062;4.508;2022-09-01T12:23:39;102296.50;;;23.38;54.23
17936;BME280;9093;52.062;4.508;2022-09-01T12:26:25;102295.63;;;23.37;53.93
17936;BME280;9093;52.062;4.508;2022-09-01T12:29:06;102302.94;;;23.37;54.18
17936;BME280;9093;52.062;4.508;2022-09-01T12:31:47;102301.47;;;23.33;53.90
17936;BME280;9093;52.062;4.508;2022-09-01T12:39:56;102288.78;;;23.43;53.92
17936;BME280;9093;52.062;4.508;2022-09-01T12:42:36;102290.28;;;23.47;53.37
17936;BME280;9093;52.062;4.508;2022-09-01T12:45:36;102296.22;;;23.52;53.12
17936;BME280;9093;52.062;4.508;2022-09-01T12:48:23;102296.69;;;23.57;53.13
17936;BME280;9093;52.062;4.508;2022-09-01T12:53:58;102282.97;;;23.68;53.03
17936;BME280;9093;52.062;4.508;2022-09-01T12:56:39;102289.22;;;23.80;52.74
17936;BME280;9093;52.062;4.508;2022-09-01T12:59:21;102279.41;;;23.88;52.68
17936;BME280;9093;52.062;4.508;2022-09-01T13:05:19;102286.63;;;23.99;52.26
17936;BME280;9093;52.062;4.508;2022-09-01T13:08:01;102283.22;;;24.07;52.42
17936;BME280;9093;52.062;4.508;2022-09-01T13:10:44;102280.94;;;24.12;51.91
17936;BME280;9093;52.062;4.508;2022-09-01T13:13:25;102280.09;;;24.11;52.13
17936;BME280;9093;52.062;4.508;2022-09-01T13:16:05;102282.41;;;24.16;51.64
17936;BME280;9093;52.062;4.508;2022-09-01T13:18:52;102278.44;;;24.20;51.40
17936;BME280;9093;52.062;4.508;2022-09-01T13:21:33;102269.28;;;24.21;51.25
17936;BME280;9093;52.062;4.508;2022-09-01T13:24:14;102274.22;;;24.16;51.40
17936;BME280;9093;52.062;4.508;2022-09-01T13:26:54;102271.47;;;24.16;51.61
17936;BME280;9093;52.062;4.508;2022-09-01T13:29:36;102258.66;;;24.07;51.64
17936;BME280;9093;52.062;4.508;2022-09-01T13:32:17;102263.69;;;24.01;52.13
17936;BME280;9093;52.062;4.508;2022-09-01T13:34:57;102261.41;;;24.07;51.44
17936;BME280;9093;52.062;4.508;2022-09-01T13:37:37;102263.72;;;24.11;51.30
17936;BME280;9093;52.062;4.508;2022-09-01T13:40:19;102253.53;;;24.13;51.33
17936;BME280;9093;52.062;4.508;2022-09-01T13:42:59;102253.97;;;24.09;51.69
17936;BME280;9093;52.062;4.508;2022-09-01T13:45:41;102253.97;;;24.09;51.35
17936;BME280;9093;52.062;4.508;2022-09-01T13:48:21;102248.22;;;24.12;51.16
17936;BME280;9093;52.062;4.508;2022-09-01T13:51:01;102245.34;;;24.13;51.41
17936;BME280;9093;52.062;4.508;2022-09-01T13:53:42;102244.19;;;24.16;50.91
17936;BME280;9093;52.062;4.508;2022-09-01T13:56:22;102240.75;;;24.14;51.25
17936;BME280;9093;52.062;4.508;2022-09-01T13:59:02;102244.19;;;24.16;50.94
17936;BME280;9093;52.062;4.508;2022-09-01T14:01:42;102256.31;;;24.23;50.80
17936;BME280;9093;52.062;4.508;2022-09-01T14:04:23;102251.34;;;24.28;50.88
17936;BME280;9093;52.062;4.508;2022-09-01T14:07:03;102246.03;;;24.26;50.46
17936;BME280;9093;52.062;4.508;2022-09-01T14:09:44;102235.09;;;24.26;50.39
17936;BME280;9093;52.062;4.508;2022-09-01T14:12:24;102228.16;;;24.22;50.82
17936;BME280;9093;52.062;4.508;2022-09-01T14:15:05;102232.50;;;24.25;50.36
17936;BME280;9093;52.062;4.508;2022-09-01T14:17:46;102235.22;;;24.25;50.48
17936;BME280;9093;52.062;4.508;2022-09-01T14:20:27;102232.50;;;24.25;50.51
17936;BME280;9093;52.062;4.508;2022-09-01T14:23:08;102225.31;;;24.24;50.86
17936;BME280;9093;52.062;4.508;2022-09-01T14:25:52;102224.44;;;24.23;50.63
17936;BME280;9093;52.062;4.508;2022-09-01T14:28:33;102223.31;;;24.26;50.49
17936;BME280;9093;52.062;4.508;2022-09-01T14:31:15;102225.63;;;24.30;50.75
17936;BME280;9093;52.062;4.508;2022-09-01T14:33:55;102225.06;;;24.27;50.81
17936;BME280;9093;52.062;4.508;2022-09-01T14:36:36;102227.03;;;24.25;50.60
17936;BME280;9093;52.062;4.508;2022-09-01T14:39:17;102221.03;;;24.31;50.58
17936;BME280;9093;52.062;4.508;2022-09-01T14:41:57;102218.31;;;24.31;50.55
17936;BME280;9093;52.062;4.508;2022-09-01T14:44:37;102213.03;;;24.39;50.22
17936;BME280;9093;52.062;4.508;2022-09-01T14:47:18;102212.72;;;24.42;50.50
17936;BME280;9093;52.062;4.508;2022-09-01T14:49:58;102203.53;;;24.43;50.43
17936;BME280;9093;52.062;4.508;2022-09-01T14:52:38;102208.13;;;24.42;50.50
17936;BME280;9093;52.062;4.508;2022-09-01T14:55:19;102193.47;;;24.43;50.25
17936;BME280;9093;52.062;4.508;2022-09-01T14:57:59;102199.50;;;24.47;50.21
17936;BME280;9093;52.062;4.508;2022-09-01T15:00:39;102190.06;;;24.51;50.22
17936;BME280;9093;52.062;4.508;2022-09-01T15:03:21;102189.06;;;24.52;50.00
17936;BME280;9093;52.062;4.508;2022-09-01T15:06:02;102188.63;;;24.57;49.75
17936;BME280;9093;52.062;4.508;2022-09-01T15:08:42;102180.56;;;24.55;49.79
17936;BME280;9093;52.062;4.508;2022-09-01T15:11:22;102187.19;;;24.53;50.12
17936;BME280;9093;52.062;4.508;2022-09-01T15:14:03;102181.88;;;24.51;49.90
17936;BME280;9093;52.062;4.508;2022-09-01T15:16:43;102182.59;;;24.53;49.87
17936;BME280;9093;52.062;4.508;2022-09-01T15:19:25;102185.16;;;24.55;50.25
17936;BME280;9093;52.062;4.508;2022-09-01T15:22:06;102178.84;;;24.54;49.96